Time;durP1;ratioP1;P1;durP2;ratioP2;P2;SDS_P1;SDS_P2;PMS_P1;PMS_P2;Temp;Humidity;BMP_temperature;BMP_pressure;BME280_temperature;BME280_humidity;BME280_pressure;Samples;Min_cycle;Max_cycle;Signal;HPM_P1;HPM_P2
2023/02/27 00:00:45;;;;;;;14.37;11.70;;;;;;;7.70;100.00;100836.28;2074593;28;20768;-65
2023/02/27 00:01:46;;;;;;;12.85;10.75;;;;;;;7.56;100.00;100834.44;2073474;28;20188;-65
2023/02/27 00:02:49;;;;;;;14.10;10.87;;;;;;;7.44;100.00;100815.63;2072912;28;20228;-64
2023/02/27 00:03:50;;;;;;;12.87;11.13;;;;;;;7.49;100.00;100822.69;2073323;28;20201;-64
2023/02/27 00:04:50;;;;;;;12.73;10.70;;;;;;;7.53;100.00;100826.22;2073476;28;20481;-64
2023/02/27 00:05:51;;;;;;;13.83;11.30;;;;;;;7.56;100.00;100817.91;2073169;28;20183;-64
2023/02/27 00:06:51;;;;;;;14.13;11.27;;;;;;;7.53;100.00;100821.47;2073445;28;20673;-64
2023/02/27 00:07:52;;;;;;;12.63;10.80;;;;;;;7.49;100.00;100806.91;2072172;28;20187;-65
2023/02/27 00:08:53;;;;;;;14.57;11.87;;;;;;;6.95;100.00;100710.50;2072771;28;20289;-65
2023/02/27 00:09:53;;;;;;;13.60;10.93;;;;;;;7.64;100.00;100822.16;2072716;28;20252;-65
2023/02/27 00:10:54;;;;;;;12.30;10.43;;;;;;;7.66;100.00;100830.81;2072850;28;20223;-65
2023/02/27 00:11:54;;;;;;;14.30;10.90;;;;;;;7.63;100.00;100826.09;2073373;28;20191;-65
2023/02/27 00:12:55;;;;;;;13.40;10.97;;;;;;;7.56;100.00;100817.09;2076382;28;20655;-65
2023/02/27 00:13:55;;;;;;;12.10;10.33;;;;;;;7.60;100.00;100823.38;2079092;28;20258;-65
2023/02/27 00:14:56;;;;;;;12.70;11.20;;;;;;;7.54;100.00;100822.25;2073241;28;20181;-64
2023/02/27 00:15:56;;;;;;;12.37;10.83;;;;;;;7.46;100.00;100831.75;2073043;28;20191;-64
2023/02/27 00:16:57;;;;;;;13.53;11.10;;;;;;;7.45;100.00;100831.00;2073449;28;20193;-64
2023/02/27 00:17:58;;;;;;;13.77;11.57;;;;;;;7.44;100.00;100850.69;2072691;28;20263;-64
2023/02/27 00:19:01;;;;;;;13.65;10.95;;;;;;;7.38;100.00;100857.84;2073395;28;20634;-65
2023/02/27 00:20:03;;;;;;;12.65;10.35;;;;;;;6.92;100.00;100797.50;2073357;28;20222;-65
2023/02/27 00:21:04;;;;;;;12.75;10.93;;;;;;;7.40;100.00;100856.25;2073484;28;20195;-65
2023/02/27 00:22:04;;;;;;;12.83;10.80;;;;;;;6.65;100.00;100744.16;2072463;28;20213;-65
2023/02/27 00:23:05;;;;;;;14.40;11.23;;;;;;;7.45;100.00;100857.78;2073177;28;20213;-65
2023/02/27 00:24:06;;;;;;;14.07;11.23;;;;;;;6.57;100.00;100730.84;2074587;28;20194;-64
2023/02/27 00:25:07;;;;;;;14.60;11.20;;;;;;;7.39;100.00;100853.88;2076044;28;20270;-64
2023/02/27 00:26:07;;;;;;;13.43;11.00;;;;;;;7.39;100.00;100860.16;2072703;28;20179;-65
2023/02/27 00:27:08;;;;;;;14.17;11.30;;;;;;;7.38;100.00;100869.63;2081012;28;20221;-65
2023/02/27 00:28:08;;;;;;;14.63;11.07;;;;;;;7.37;100.00;100865.31;2074379;28;20568;-64
2023/02/27 00:29:09;;;;;;;13.83;11.27;;;;;;;7.32;100.00;100854.72;2078500;28;20289;-64
2023/02/27 00:30:14;;;;;;;13.80;10.77;;;;;;;7.33;100.00;100845.25;2077311;28;20193;-64
2023/02/27 00:31:14;;;;;;;13.48;10.52;;;;;;;7.38;100.00;100849.56;2073422;28;20246;-64
2023/02/27 00:32:15;;;;;;;13.33;10.97;;;;;;;7.41;100.00;100845.97;2072592;28;20187;-65
2023/02/27 00:33:15;;;;;;;14.37;10.87;;;;;;;7.43;100.00;100849.13;2073235;28;20210;-65
2023/02/27 00:34:16;;;;;;;12.80;10.63;;;;;;;7.07;100.00;100787.19;2073005;28;20184;-65
2023/02/27 00:35:17;;;;;;;12.53;10.90;;;;;;;7.54;100.00;100841.56;2073646;28;20185;-65
2023/02/27 00:36:17;;;;;;;12.97;11.00;;;;;;;6.65;100.00;100696.56;2080222;28;20248;-65
2023/02/27 00:37:18;;;;;;;13.03;9.60;;;;;;;7.57;100.00;100855.31;2075127;28;20668;-65
2023/02/27 00:38:18;;;;;;;14.27;10.83;;;;;;;7.53;100.00;100857.31;2072343;28;20285;-65
2023/02/27 00:39:18;;;;;;;12.97;10.60;;;;;;;7.61;100.00;100860.78;2069446;28;20256;-65
2023/02/27 00:40:19;;;;;;;13.60;11.00;;;;;;;7.68;100.00;100858.75;2067666;28;20309;-65
2023/02/27 00:41:19;;;;;;;13.67;10.57;;;;;;;7.64;100.00;100854.47;2071630;28;20181;-64
2023/02/27 00:42:20;;;;;;;14.03;11.10;;;;;;;7.72;100.00;100850.44;2064777;28;20205;-64
2023/02/27 00:43:20;;;;;;;13.83;11.40;;;;;;;7.71;100.00;100851.66;2073290;28;20239;-64
2023/02/27 00:44:21;;;;;;;13.43;10.77;;;;;;;7.73;100.00;100847.28;2065396;28;20239;-64
2023/02/27 00:45:21;;;;;;;12.87;10.33;;;;;;;7.76;100.00;100849.25;2065172;28;20197;-64
2023/02/27 00:46:22;;;;;;;13.93;10.47;;;;;;;7.75;100.00;100861.44;2064688;28;20191;-64
2023/02/27 00:47:22;;;;;;;15.60;11.07;;;;;;;7.73;100.00;100855.56;2073781;28;20200;-64
2023/02/27 00:48:23;;;;;;;14.10;11.70;;;;;;;7.26;100.00;100784.66;2074145;28;20198;-64
2023/02/27 00:49:24;;;;;;;15.77;11.17;;;;;;;7.71;100.00;100882.78;2069249;28;20181;-64
2023/02/27 00:50:24;;;;;;;13.97;11.67;;;;;;;7.72;100.00;100878.03;2078967;28;20180;-65
2023/02/27 00:51:25;;;;;;;13.90;10.77;;;;;;;7.76;100.00;100876.84;2065325;28;20507;-65
2023/02/27 00:52:26;;;;;;;14.55;11.48;;;;;;;7.02;100.00;100746.28;2064460;28;20249;-65
2023/02/27 00:53:27;;;;;;;13.15;10.32;;;;;;;7.85;100.00;100871.59;2072063;28;20191;-65
2023/02/27 00:54:28;;;;;;;14.37;11.40;;;;;;;7.94;100.00;100880.22;2072897;28;20194;-65
2023/02/27 00:55:28;;;;;;;15.33;11.43;;;;;;;7.96;100.00;100880.59;2068093;28;20295;-65
2023/02/27 00:56:29;;;;;;;14.60;11.30;;;;;;;8.00;100.00;100886.84;2068580;28;20581;-65
2023/02/27 00:57:29;;;;;;;14.43;10.73;;;;;;;7.89;100.00;100872.38;2072809;28;20225;-65
2023/02/27 00:58:30;;;;;;;14.50;11.40;;;;;;;7.70;100.00;100883.94;2072280;28;20236;-65
2023/02/27 00:59:30;;;;;;;15.30;11.40;;;;;;;7.50;100.00;100865.63;2072374;28;20230;-65
2023/02/27 01:00:31;;;;;;;14.13;11.83;;;;;;;7.63;100.00;100897.03;2068101;28;20209;-65
2023/02/27 01:01:31;;;;;;;14.97;10.67;;;;;;;7.62;100.00;100895.44;2073035;28;20198;-64
2023/02/27 01:02:32;;;;;;;15.77;11.67;;;;;;;7.59;100.00;100880.50;2072400;28;20196;-64
2023/02/27 01:03:32;;;;;;;14.63;11.57;;;;;;;7.66;100.00;100893.47;2073239;28;20285;-64
2023/02/27 01:04:33;;;;;;;13.20;10.83;;;;;;;7.73;100.00;100885.13;2068523;28;20679;-64
2023/02/27 01:05:34;;;;;;;13.67;10.97;;;;;;;7.76;100.00;100889.84;2067851;28;20194;-64
2023/02/27 01:06:34;;;;;;;14.13;10.87;;;;;;;7.72;100.00;100898.13;2072805;28;20196;-64
2023/02/27 01:07:36;;;;;;;14.10;11.13;;;;;;;7.06;100.00;100819.47;2072509;28;20698;-64
2023/02/27 01:08:36;;;;;;;13.70;10.27;;;;;;;7.49;100.00;100897.91;2073104;28;20185;-64
2023/02/27 01:09:37;;;;;;;13.37;10.73;;;;;;;7.44;100.00;100900.31;2073275;28;20197;-65
2023/02/27 01:10:37;;;;;;;14.63;10.70;;;;;;;7.37;100.00;100901.16;2072815;28;20209;-65
2023/02/27 01:11:37;;;;;;;13.63;10.33;;;;;;;7.36;100.00;100901.53;2073087;28;20205;-64
2023/02/27 01:12:38;;;;;;;12.80;10.03;;;;;;;7.33;100.00;100910.63;2072271;28;20211;-64
2023/02/27 01:13:39;;;;;;;13.10;10.52;;;;;;;7.26;100.00;100914.22;2072804;28;20575;-64
2023/02/27 01:14:40;;;;;;;13.67;10.37;;;;;;;7.15;100.00;100904.44;2072867;28;20208;-64
2023/02/27 01:15:40;;;;;;;14.77;10.87;;;;;;;7.33;100.00;100916.16;2072731;28;20196;-64
2023/02/27 01:16:41;;;;;;;14.17;10.87;;;;;;;7.22;100.00;100890.63;2072796;28;20178;-64
2023/02/27 01:17:41;;;;;;;13.97;10.87;;;;;;;7.43;100.00;100923.56;2072337;28;20189;-64
2023/02/27 01:18:41;;;;;;;14.63;11.10;;;;;;;7.46;100.00;100922.75;2072844;28;20231;-64
2023/02/27 01:19:42;;;;;;;16.67;10.90;;;;;;;6.98;100.00;100847.47;2072702;28;20272;-64
2023/02/27 01:20:42;;;;;;;15.40;11.30;;;;;;;6.96;100.00;100850.59;2072892;28;20228;-64
2023/02/27 01:21:44;;;;;;;13.77;10.20;;;;;;;7.40;100.00;100940.91;2072796;28;20194;-64
2023/02/27 01:22:44;;;;;;;15.80;10.68;;;;;;;7.42;100.00;100931.06;2072096;28;20570;-64
2023/02/27 01:23:45;;;;;;;15.30;11.17;;;;;;;7.48;100.00;100937.72;2072881;28;20187;-64
2023/02/27 01:24:45;;;;;;;12.97;10.30;;;;;;;7.55;100.00;100943.19;2072774;28;20288;-64
2023/02/27 01:25:47;;;;;;;13.40;10.67;;;;;;;7.57;100.00;100942.78;2072689;28;20734;-64
2023/02/27 01:26:48;;;;;;;12.43;10.38;;;;;;;7.62;100.00;100934.06;2072779;28;20214;-64
2023/02/27 01:27:49;;;;;;;13.43;10.40;;;;;;;7.63;100.00;100933.66;2072200;28;20816;-64
2023/02/27 01:28:49;;;;;;;13.87;10.73;;;;;;;7.65;100.00;100933.28;2072768;28;20896;-64
2023/02/27 01:29:49;;;;;;;13.23;10.90;;;;;;;7.65;100.00;100933.28;2072797;28;20609;-64
2023/02/27 01:30:50;;;;;;;14.30;10.70;;;;;;;7.68;100.00;100941.50;2072866;28;20606;-64
2023/02/27 01:31:50;;;;;;;13.60;10.90;;;;;;;7.67;100.00;100966.72;2075259;28;20179;-64
2023/02/27 01:32:51;;;;;;;14.97;11.23;;;;;;;7.76;100.00;100948.56;2072484;28;20182;-64
2023/02/27 01:33:51;;;;;;;13.40;10.30;;;;;;;7.63;100.00;100927.38;2072597;28;20179;-64
2023/02/27 01:34:51;;;;;;;13.73;10.87;;;;;;;7.78;100.00;100939.84;2072925;28;20187;-64
2023/02/27 01:35:52;;;;;;;12.77;10.43;;;;;;;7.68;100.00;100938.75;2072590;28;20647;-65
2023/02/27 01:36:52;;;;;;;13.57;10.43;;;;;;;6.65;100.00;100788.22;2072984;28;20650;-65
2023/02/27 01:37:53;;;;;;;12.97;10.40;;;;;;;7.67;100.00;100942.72;2066953;28;20557;-65
2023/02/27 01:38:53;;;;;;;16.43;11.77;;;;;;;6.84;100.00;100834.56;2072252;28;20190;-65
2023/02/27 01:39:54;;;;;;;12.90;10.80;;;;;;;7.47;100.00;100955.44;2078163;28;20592;-65
2023/02/27 01:40:56;;;;;;;14.83;10.57;;;;;;;7.31;100.00;100952.38;2072692;28;20234;-64
2023/02/27 01:41:56;;;;;;;15.52;11.60;;;;;;;7.23;100.00;100956.34;2072229;28;20187;-64
2023/02/27 01:42:56;;;;;;;15.13;11.47;;;;;;;7.27;100.00;100957.13;2072622;28;20202;-64
2023/02/27 01:44:11;;;;;;;16.97;12.33;;;;;;;7.27;100.00;100972.88;2072655;28;20208;-64
2023/02/27 01:45:11;;;;;;;15.57;11.82;;;;;;;7.25;100.00;100958.72;2072997;28;20229;-64
2023/02/27 01:46:12;;;;;;;15.10;11.87;;;;;;;7.22;100.00;100960.31;2072268;28;20185;-64
2023/02/27 01:47:12;;;;;;;17.90;13.03;;;;;;;7.20;100.00;100967.41;2072942;28;20633;-64
2023/02/27 01:48:22;;;;;;;15.13;11.70;;;;;;;7.22;100.00;100963.06;2071768;28;20576;-64
2023/02/27 01:49:26;;;;;;;15.60;12.10;;;;;;;7.13;100.00;100968.22;2072806;28;20194;-64
2023/02/27 01:50:26;;;;;;;16.48;13.27;;;;;;;7.03;100.00;100984.81;2072570;28;20668;-64
2023/02/27 01:51:32;;;;;;;19.97;14.20;;;;;;;6.41;100.00;100917.72;2069642;28;20558;-64
2023/02/27 01:52:35;;;;;;;19.70;15.25;;;;;;;6.80;100.00;100990.78;2069473;28;20254;-64
2023/02/27 01:53:38;;;;;;;21.23;15.65;;;;;;;6.78;100.00;100995.13;2076743;28;20182;-64
2023/02/27 01:54:40;;;;;;;22.65;17.35;;;;;;;6.79;100.00;101004.94;2065578;28;20565;-64
2023/02/27 01:55:42;;;;;;;22.75;17.63;;;;;;;6.59;100.00;100993.59;2071930;28;20229;-64
2023/02/27 01:56:43;;;;;;;22.08;17.42;;;;;;;6.48;100.00;101012.09;2073064;28;20186;-62
2023/02/27 01:57:46;;;;;;;21.73;17.27;;;;;;;6.42;100.00;101018.41;2072490;28;20285;-61
2023/02/27 01:58:49;;;;;;;22.85;18.13;;;;;;;5.90;100.00;100947.66;2072861;28;20197;-61
2023/02/27 01:59:49;;;;;;;25.08;18.98;;;;;;;6.31;100.00;101009.34;2066953;28;20718;-62
2023/02/27 02:00:50;;;;;;;26.53;20.03;;;;;;;6.05;100.00;100999.53;2069508;28;20194;-63
2023/02/27 02:01:51;;;;;;;26.30;20.77;;;;;;;6.36;100.00;101031.00;2069559;28;20686;-61
2023/02/27 02:03:08;;;;;;;23.55;18.67;;;;;;;6.27;100.00;101036.09;2064810;28;20178;-62
2023/02/27 02:04:24;;;;;;;23.77;19.25;;;;;;;6.25;100.00;101041.22;2064812;28;20177;-62
2023/02/27 02:05:25;;;;;;;25.42;20.35;;;;;;;6.28;100.00;101052.22;2068382;28;20674;-62
2023/02/27 02:06:29;;;;;;;22.30;18.43;;;;;;;6.17;100.00;101039.63;2072580;28;20556;-62
2023/02/27 02:07:31;;;;;;;25.83;19.10;;;;;;;6.12;100.00;101040.81;2072883;28;20614;-62
2023/02/27 02:08:35;;;;;;;21.33;17.70;;;;;;;6.12;100.00;101045.53;2072492;28;20182;-62
2023/02/27 02:09:40;;;;;;;20.92;16.63;;;;;;;6.15;100.00;101045.50;2073060;28;20197;-62
2023/02/27 02:10:42;;;;;;;20.42;16.48;;;;;;;6.01;100.00;101036.47;2072880;28;20647;-62
2023/02/27 02:11:43;;;;;;;17.83;14.18;;;;;;;6.13;100.00;101056.13;2072734;28;20197;-62
2023/02/27 02:12:45;;;;;;;14.45;11.35;;;;;;;6.13;100.00;101058.88;2072372;28;20247;-62
2023/02/27 02:13:50;;;;;;;15.60;11.57;;;;;;;6.17;100.00;101056.13;2072646;28;20525;-62
2023/02/27 02:14:51;;;;;;;13.05;9.63;;;;;;;6.22;100.00;101058.50;2067762;28;20186;-62
2023/02/27 02:16:05;;;;;;;15.90;9.93;;;;;;;5.93;100.00;101019.16;2068439;28;20229;-62
2023/02/27 02:17:21;;;;;;;13.70;10.10;;;;;;;6.27;100.00;101064.41;2072793;28;20185;-62
2023/02/27 02:18:32;;;;;;;15.18;11.20;;;;;;;6.33;100.00;101056.53;2066383;28;20572;-63
2023/02/27 02:19:42;;;;;;;13.88;10.27;;;;;;;6.38;100.00;101067.94;2064700;28;20198;-62
2023/02/27 02:20:51;;;;;;;12.57;9.30;;;;;;;6.40;100.00;101057.31;2064612;28;20175;-62
2023/02/27 02:22:00;;;;;;;12.93;9.50;;;;;;;6.38;100.00;101061.66;2070377;28;20205;-62
2023/02/27 02:23:27;;;;;;;14.00;10.30;;;;;;;6.42;100.00;101067.94;2072643;28;20745;-61
2023/02/27 02:24:53;;;;;;;12.98;8.50;;;;;;;6.31;100.00;101064.41;2064647;28;20178;-62
2023/02/27 02:26:22;;;;;;;9.73;6.55;;;;;;;6.27;100.00;101058.13;2064433;28;20173;-61
2023/02/27 02:27:39;;;;;;;7.45;5.60;;;;;;;6.23;100.00;101063.63;2068910;28;20275;-62
2023/02/27 02:29:16;;;;;;;8.23;6.32;;;;;;;6.30;100.00;101079.34;2072787;28;20251;-61
2023/02/27 02:30:35;;;;;;;9.82;5.75;;;;;;;6.24;100.00;101072.63;2064685;28;20567;-62
2023/02/27 02:31:44;;;;;;;8.15;5.70;;;;;;;6.23;100.00;101068.31;2064794;28;20644;-62
2023/02/27 02:33:09;;;;;;;8.27;5.93;;;;;;;6.15;100.00;101083.28;2070935;28;20213;-61
2023/02/27 02:34:46;;;;;;;8.27;6.25;;;;;;;6.16;100.00;101088.34;2072758;28;20172;-61
2023/02/27 02:36:05;;;;;;;9.15;6.22;;;;;;;6.17;100.00;101100.97;2071142;28;20247;-62
2023/02/27 02:37:33;;;;;;;8.23;5.50;;;;;;;6.17;100.00;101100.16;2072939;28;20165;-62
2023/02/27 02:39:08;;;;;;;11.00;5.95;;;;;;;6.16;100.00;101098.59;2072356;28;20184;-61
2023/02/27 02:40:55;;;;;;;10.88;6.00;;;;;;;6.14;100.00;101103.69;2072671;28;20557;-62
2023/02/27 02:42:03;;;;;;;6.82;5.38;;;;;;;6.07;100.00;101106.44;2060987;28;20197;-62
2023/02/27 02:43:18;;;;;;;7.25;5.88;;;;;;;6.13;100.00;101111.16;2064681;28;20178;-62
2023/02/27 02:44:27;;;;;;;9.45;6.40;;;;;;;6.21;100.00;101120.22;2064232;28;20169;-62
2023/02/27 02:45:58;;;;;;;7.97;5.95;;;;;;;6.18;100.00;101121.78;2066090;28;20169;-62
2023/02/27 02:47:29;;;;;;;10.95;6.20;;;;;;;6.26;100.00;101123.38;2072096;28;20304;-62
2023/02/27 02:48:44;;;;;;;8.20;6.10;;;;;;;6.26;100.00;101126.13;2072204;28;20202;-61
2023/02/27 02:50:03;;;;;;;7.93;5.82;;;;;;;6.21;100.00;101128.47;2064652;28;20193;-61
2023/02/27 02:51:19;;;;;;;7.38;5.75;;;;;;;6.13;100.00;101102.13;2064700;28;20174;-61
2023/02/27 02:52:58;;;;;;;8.70;5.82;;;;;;;6.28;100.00;101134.00;2064775;28;20545;-62
2023/02/27 02:54:07;;;;;;;7.80;5.53;;;;;;;6.30;100.00;101139.91;2071596;28;20339;-61
2023/02/27 02:55:23;;;;;;;7.72;6.05;;;;;;;6.18;100.00;101143.00;2072482;28;20214;-62
2023/02/27 02:56:46;;;;;;;8.18;5.78;;;;;;;6.27;100.00;101143.44;2072457;28;20198;-62
2023/02/27 02:57:58;;;;;;;6.85;5.60;;;;;;;6.28;100.00;101145.81;2072256;28;20193;-61
2023/02/27 02:59:22;;;;;;;7.80;5.90;;;;;;;6.25;100.00;101152.06;2072164;28;20201;-62
2023/02/27 03:00:36;;;;;;;8.38;6.03;;;;;;;6.21;100.00;101154.03;2063721;28;20627;-62
2023/02/27 03:01:43;;;;;;;9.18;5.95;;;;;;;6.22;100.00;101158.38;2072821;28;20159;-62
2023/02/27 03:02:55;;;;;;;8.68;6.50;;;;;;;5.62;100.00;101074.84;2072221;28;20601;-62
2023/02/27 03:04:05;;;;;;;8.07;6.20;;;;;;;6.23;100.00;101162.69;2072594;28;20185;-62
2023/02/27 03:05:11;;;;;;;9.05;6.30;;;;;;;6.27;100.00;101174.50;2072556;28;20169;-61
2023/02/27 03:06:32;;;;;;;7.30;5.93;;;;;;;5.46;100.00;101079.91;2073257;28;20240;-63
2023/02/27 03:07:39;;;;;;;7.90;6.13;;;;;;;6.16;100.00;101179.16;2078881;28;20628;-62
2023/02/27 03:08:49;;;;;;;8.38;5.93;;;;;;;5.43;100.00;101072.41;2074186;28;20349;-61
2023/02/27 03:09:56;;;;;;;7.55;5.88;;;;;;;6.19;100.00;101191.38;2073733;28;20172;-62
2023/02/27 03:11:05;;;;;;;6.75;5.60;;;;;;;6.21;100.00;101208.28;2074322;28;20247;-62
2023/02/27 03:12:09;;;;;;;7.82;5.82;;;;;;;6.26;100.00;101205.16;2072630;28;20667;-62
2023/02/27 03:13:32;;;;;;;7.53;5.70;;;;;;;6.15;100.00;101204.34;2066642;28;20265;-62
2023/02/27 03:14:56;;;;;;;6.72;5.10;;;;;;;6.13;100.00;101209.44;2074070;28;20189;-61
2023/02/27 03:16:14;;;;;;;8.88;5.20;;;;;;;6.05;100.00;101218.84;2080322;28;20741;-62
2023/02/27 03:17:23;;;;;;;7.45;5.20;;;;;;;5.78;100.00;101184.50;2077264;28;20204;-61
2023/02/27 03:18:36;;;;;;;7.25;5.30;;;;;;;6.03;100.00;101230.25;2073501;28;20185;-62
2023/02/27 03:19:43;;;;;;;6.35;5.28;;;;;;;6.03;100.00;101233.00;2074004;28;20667;-62
2023/02/27 03:20:51;;;;;;;7.80;5.43;;;;;;;5.72;100.00;101180.56;2074072;28;20204;-62
2023/02/27 03:22:01;;;;;;;6.45;5.25;;;;;;;5.75;100.00;101199.03;2074484;28;20636;-62
2023/02/27 03:23:08;;;;;;;5.55;4.65;;;;;;;5.16;100.00;101120.59;2074250;28;20224;-62
2023/02/27 03:24:15;;;;;;;6.32;5.03;;;;;;;5.96;100.00;101252.22;2070223;28;20190;-63
2023/02/27 03:25:16;;;;;;;7.03;5.07;;;;;;;5.70;100.00;101224.16;2069443;28;20200;-62
2023/02/27 03:26:22;;;;;;;6.50;5.20;;;;;;;5.72;100.00;101211.59;2071966;28;20267;-61
2023/02/27 03:27:29;;;;;;;5.70;4.65;;;;;;;5.97;100.00;101251.06;2067799;28;20163;-62
2023/02/27 03:28:34;;;;;;;6.50;4.90;;;;;;;5.81;100.00;101233.28;2074135;28;20162;-62
2023/02/27 03:30:00;;;;;;;6.45;4.95;;;;;;;5.98;100.00;101249.06;2074115;28;20173;-63
2023/02/27 03:31:12;;;;;;;6.13;4.28;;;;;;;6.01;100.00;101260.09;2074125;28;20693;-62
2023/02/27 03:32:24;;;;;;;5.82;4.45;;;;;;;6.06;100.00;101256.19;2073801;28;20216;-62
2023/02/27 03:33:30;;;;;;;4.28;3.33;;;;;;;5.06;100.00;101117.75;2074260;28;20644;-61
2023/02/27 03:34:37;;;;;;;4.53;3.65;;;;;;;6.04;100.00;101295.09;2073862;28;20206;-62
2023/02/27 03:36:03;;;;;;;4.10;3.35;;;;;;;6.01;100.00;101308.84;2070256;28;20194;-63
2023/02/27 03:37:31;;;;;;;4.10;3.30;;;;;;;5.96;100.00;101277.00;2071767;28;20212;-62
2023/02/27 03:38:45;;;;;;;4.70;3.53;;;;;;;5.99;100.00;101281.72;2065719;28;20188;-62
2023/02/27 03:39:54;;;;;;;5.38;4.20;;;;;;;5.86;100.00;101272.22;2066125;28;20166;-61
2023/02/27 03:41:10;;;;;;;5.30;3.50;;;;;;;5.10;100.00;101155.09;2066102;28;20629;-63
2023/02/27 03:42:33;;;;;;;5.18;3.55;;;;;;;5.91;100.00;101296.63;2066612;28;20565;-62
2023/02/27 03:43:49;;;;;;;4.95;3.55;;;;;;;6.00;100.00;101291.53;2068023;28;20263;-62
2023/02/27 03:44:53;;;;;;;3.83;2.92;;;;;;;6.03;100.00;101307.28;2074027;28;20193;-62
2023/02/27 03:45:54;;;;;;;4.60;2.90;;;;;;;5.95;100.00;101293.88;2073783;28;20639;-62
2023/02/27 03:46:54;;;;;;;5.20;3.40;;;;;;;5.99;100.00;101291.91;2073867;28;20530;-62
2023/02/27 03:47:55;;;;;;;4.30;3.10;;;;;;;6.05;100.00;101296.66;2073677;28;20263;-62
2023/02/27 03:48:55;;;;;;;3.73;2.90;;;;;;;5.93;100.00;101271.44;2074115;28;20279;-63
2023/02/27 03:49:56;;;;;;;4.33;3.37;;;;;;;6.07;100.00;101304.53;2066843;28;20647;-62
2023/02/27 03:50:56;;;;;;;5.00;3.30;;;;;;;5.97;100.00;101297.81;2071198;28;20234;-61
2023/02/27 03:51:57;;;;;;;3.83;2.87;;;;;;;5.96;100.00;101306.44;2073919;28;20294;-62
2023/02/27 03:52:58;;;;;;;3.70;3.10;;;;;;;5.93;100.00;101319.00;2073978;28;20181;-62
2023/02/27 03:54:05;;;;;;;6.10;3.08;;;;;;;5.30;100.00;101213.31;2073942;28;20691;-62
2023/02/27 03:55:14;;;;;;;4.35;3.10;;;;;;;5.94;100.00;101311.56;2073761;28;20185;-62
2023/02/27 03:56:19;;;;;;;5.18;2.70;;;;;;;5.91;100.00;101320.56;2073887;28;20174;-62
2023/02/27 03:57:19;;;;;;;4.10;3.10;;;;;;;5.92;100.00;101319.38;2073886;28;20173;-62
2023/02/27 03:58:20;;;;;;;3.80;2.70;;;;;;;5.72;100.00;101285.84;2073488;28;20192;-62
2023/02/27 03:59:22;;;;;;;3.83;2.83;;;;;;;5.85;100.00;101320.13;2066506;28;20354;-62
2023/02/27 04:00:25;;;;;;;3.60;2.70;;;;;;;5.74;100.00;101300.00;2071930;28;20678;-61
2023/02/27 04:01:26;;;;;;;4.82;3.03;;;;;;;5.88;100.00;101324.88;2074115;28;20564;-63
2023/02/27 04:02:27;;;;;;;3.67;2.80;;;;;;;5.92;100.00;101327.66;2073375;28;20197;-62
2023/02/27 04:03:31;;;;;;;3.47;2.80;;;;;;;5.40;100.00;101231.81;2073814;28;20189;-62
2023/02/27 04:04:34;;;;;;;4.40;3.00;;;;;;;5.97;100.00;101325.34;2073537;28;20669;-62
2023/02/27 04:05:34;;;;;;;4.43;3.20;;;;;;;5.97;100.00;101327.28;2073734;28;20205;-62
2023/02/27 04:08:43;;;;;;;4.10;3.08;;;;;;;6.08;100.00;101325.38;2073310;28;20177;-62
2023/02/27 04:10:04;;;;;;;3.63;2.70;;;;;;;6.10;100.00;101325.78;2073841;28;20282;-62
2023/02/27 04:11:19;;;;;;;2.78;2.42;;;;;;;6.12;100.00;101324.25;2073774;28;20180;-62
2023/02/27 04:12:55;;;;;;;4.45;3.10;;;;;;;6.15;100.00;101328.19;2072564;28;20189;-61
2023/02/27 04:14:11;;;;;;;3.90;2.60;;;;;;;6.09;100.00;101315.94;2069684;28;20315;-63
2023/02/27 04:15:32;;;;;;;4.22;2.95;;;;;;;6.21;100.00;101330.16;2073713;28;20691;-63
2023/02/27 04:16:41;;;;;;;3.30;2.70;;;;;;;6.19;100.00;101335.28;2080032;28;20295;-63
2023/02/27 04:18:08;;;;;;;3.60;3.00;;;;;;;6.17;100.00;101334.88;2074697;28;20197;-62
2023/02/27 04:19:17;;;;;;;3.72;2.90;;;;;;;6.17;100.00;101332.13;2064899;28;20739;-62
2023/02/27 04:20:28;;;;;;;3.47;2.80;;;;;;;6.16;100.00;101338.00;2065929;28;20206;-63
2023/02/27 04:21:34;;;;;;;3.75;3.00;;;;;;;6.24;100.00;101340.41;2065769;28;20179;-63
2023/02/27 04:22:44;;;;;;;3.70;3.05;;;;;;;6.25;100.00;101338.47;2065216;28;20189;-63
2023/02/27 04:23:55;;;;;;;3.92;3.10;;;;;;;6.25;100.00;101338.47;2064874;28;20616;-61
2023/02/27 04:25:07;;;;;;;3.88;3.10;;;;;;;6.13;100.00;101334.06;2065229;28;20173;-62
2023/02/27 04:26:45;;;;;;;3.67;3.25;;;;;;;6.23;100.00;101338.03;2065575;28;20648;-62
2023/02/27 04:27:51;;;;;;;3.30;2.67;;;;;;;6.24;100.00;101345.13;2072919;28;20189;-63
2023/02/27 04:28:57;;;;;;;3.65;2.97;;;;;;;6.25;100.00;101341.97;2078281;28;20192;-62
2023/02/27 04:30:13;;;;;;;3.17;2.83;;;;;;;6.08;100.00;101317.13;2073595;28;20188;-62
2023/02/27 04:31:23;;;;;;;3.40;2.80;;;;;;;6.26;100.00;101349.06;2073498;28;20227;-62
2023/02/27 04:32:38;;;;;;;3.33;2.75;;;;;;;6.25;100.00;101347.47;2072464;28;20193;-62
2023/02/27 04:34:10;;;;;;;3.53;3.05;;;;;;;6.33;100.00;101362.06;2073121;28;20272;-63
2023/02/27 04:35:19;;;;;;;3.80;3.20;;;;;;;6.29;100.00;101362.06;2073235;28;20270;-63
2023/02/27 04:36:28;;;;;;;4.05;3.22;;;;;;;6.18;100.00;101361.22;2073340;28;20196;-63
2023/02/27 04:37:41;;;;;;;3.90;3.22;;;;;;;5.82;100.00;101293.41;2073651;28;20193;-63
2023/02/27 04:39:11;;;;;;;3.85;3.15;;;;;;;5.94;100.00;101322.56;2073559;28;20174;-62
2023/02/27 04:40:18;;;;;;;4.00;2.88;;;;;;;6.26;100.00;101360.06;2067068;28;20754;-63
2023/02/27 04:41:23;;;;;;;3.30;2.70;;;;;;;6.26;100.00;101370.31;2073568;28;20193;-62
2023/02/27 04:42:30;;;;;;;3.60;2.75;;;;;;;6.23;100.00;101360.06;2073291;28;20165;-63
2023/02/27 04:43:33;;;;;;;3.95;2.97;;;;;;;6.19;100.00;101357.28;2073551;28;20190;-63
2023/02/27 04:44:36;;;;;;;5.55;3.28;;;;;;;6.21;100.00;101367.91;2073181;28;20243;-63
2023/02/27 04:45:40;;;;;;;3.67;2.92;;;;;;;6.15;100.00;101366.72;2073337;28;20175;-62
2023/02/27 04:46:43;;;;;;;3.42;2.90;;;;;;;6.03;100.00;101367.81;2073396;28;20193;-62
2023/02/27 04:47:50;;;;;;;3.45;2.60;;;;;;;6.01;100.00;101372.88;2072996;28;20200;-62
2023/02/27 04:49:17;;;;;;;3.22;2.75;;;;;;;5.98;100.00;101372.88;2073533;28;20230;-63
2023/02/27 04:50:24;;;;;;;3.90;2.80;;;;;;;6.03;100.00;101373.31;2072633;28;20198;-62
2023/02/27 04:51:31;;;;;;;3.45;2.85;;;;;;;5.93;100.00;101373.22;2073464;28;20632;-63
2023/02/27 04:52:40;;;;;;;3.00;2.70;;;;;;;5.93;100.00;101368.53;2073169;28;20166;-62
2023/02/27 04:54:11;;;;;;;2.95;2.50;;;;;;;5.93;100.00;101378.72;2065369;28;20178;-63
2023/02/27 04:55:24;;;;;;;2.97;2.42;;;;;;;5.90;100.00;101376.75;2065550;28;20155;-62
2023/02/27 04:56:31;;;;;;;4.25;2.80;;;;;;;5.91;100.00;101376.38;2067729;28;20705;-62
2023/02/27 04:57:40;;;;;;;3.10;2.72;;;;;;;5.84;100.00;101378.28;2073122;28;20169;-62
2023/02/27 04:58:47;;;;;;;3.50;2.80;;;;;;;5.76;100.00;101369.19;2072933;28;20170;-64
2023/02/27 04:59:53;;;;;;;3.13;2.83;;;;;;;5.83;100.00;101368.44;2070508;28;20157;-62
2023/02/27 05:01:00;;;;;;;3.10;2.80;;;;;;;4.58;100.00;101166.44;2070665;28;20635;-62
2023/02/27 05:02:07;;;;;;;2.88;2.50;;;;;;;4.97;100.00;101221.69;2067245;28;20679;-60
2023/02/27 05:03:13;;;;;;;3.55;2.97;;;;;;;5.92;100.00;101377.97;2070803;28;20181;-60
2023/02/27 05:04:18;;;;;;;3.42;2.90;;;;;;;5.79;100.00;101367.63;2070025;28;20192;-60
2023/02/27 05:05:24;;;;;;;3.00;2.70;;;;;;;5.81;100.00;101376.28;2072183;28;20178;-61
2023/02/27 05:06:31;;;;;;;3.10;2.70;;;;;;;5.80;100.00;101388.47;2071718;28;20232;-62
2023/02/27 05:07:43;;;;;;;3.15;2.85;;;;;;;5.78;100.00;101393.53;2070843;28;20560;-64
2023/02/27 05:08:56;;;;;;;3.10;2.80;;;;;;;5.78;100.00;101399.03;2071383;28;20220;-66
2023/02/27 05:10:13;;;;;;;3.15;2.85;;;;;;;5.63;100.00;101392.63;2072039;28;20734;-61
2023/02/27 05:11:20;;;;;;;3.35;2.95;;;;;;;5.63;100.00;101402.81;2072601;28;20375;-62